Spokane, Washington
Current Conditions -  °F | °C
As of 7:53 AM on Saturday 22 Nov 2014 (Local Time) from KSFF Reporting Station
Clear Clear  
Wind Chill: 37°   Ceiling: Unl
Heat Index: 37°   Visibility: 10mi
Dew Point: 30°   Wind: 3mph
Humidity: 76%   Direction: 230°SW
Pressure: 29.6"   Gusts: NA
Location:  47.66°N, 117.41°W
Report Text: KSFF 221553Z 23003KT 10SM CLR 03/M01 A2960 RMK AO2 SLP032 T00281011
Loading
Personal Weather Stations






























Interactive Weather Map New forecast layout! Learn more

10-Day Weather Forecast

Advertisements
Track Severe Weather on mobile